createdAt,value
2019-05-02T00:00:03.323Z,988.28
2019-05-02T00:01:03.320Z,988.22
2019-05-02T00:02:03.327Z,988.22
2019-05-02T00:03:04.437Z,988.19
2019-05-02T00:04:04.288Z,988.20
2019-05-02T00:05:03.333Z,988.23
2019-05-02T00:06:07.451Z,988.24
2019-05-02T00:07:04.316Z,988.25
2019-05-02T00:08:03.296Z,988.17
2019-05-02T00:09:03.915Z,988.25
2019-05-02T00:10:05.310Z,988.17
2019-05-02T00:11:03.291Z,988.22
2019-05-02T00:12:03.309Z,988.20
2019-05-02T00:13:03.278Z,988.21
2019-05-02T00:14:03.282Z,988.21
2019-05-02T00:15:03.581Z,988.10
2019-05-02T00:16:04.247Z,988.15
2019-05-02T00:17:03.263Z,988.07
2019-05-02T00:18:03.247Z,988.19
2019-05-02T00:19:03.227Z,988.13
2019-05-02T00:20:03.221Z,988.08
2019-05-02T00:21:03.301Z,988.08
2019-05-02T00:22:04.210Z,988.06
2019-05-02T00:23:03.201Z,988.03
2019-05-02T00:24:04.196Z,988.01
2019-05-02T00:25:03.179Z,988.01
2019-05-02T00:26:03.172Z,988.03
2019-05-02T00:27:03.276Z,988.02
2019-05-02T00:28:07.881Z,988.05
2019-05-02T00:29:04.167Z,988.01
2019-05-02T00:30:03.172Z,988.09
2019-05-02T00:31:07.379Z,988.07
2019-05-02T00:32:04.156Z,988.13
2019-05-02T00:33:03.140Z,988.09
2019-05-02T00:34:03.135Z,988.06
2019-05-02T00:35:03.126Z,988.04
2019-05-02T00:36:03.114Z,988.04
2019-05-02T00:37:03.125Z,988.03
2019-05-02T00:38:03.845Z,988.05
2019-05-02T00:39:03.102Z,988.09
2019-05-02T00:40:03.082Z,988.10
2019-05-02T00:41:03.687Z,988.03
2019-05-02T00:42:12.502Z,988.07
2019-05-02T00:43:05.082Z,988.01
2019-05-02T00:44:06.061Z,987.99
2019-05-02T00:45:05.090Z,987.96
2019-05-02T00:46:03.079Z,987.95
2019-05-02T00:47:06.184Z,988.00
2019-05-02T00:48:05.061Z,987.98
2019-05-02T00:49:03.067Z,987.92
2019-05-02T00:50:06.266Z,987.99
2019-05-02T00:51:05.048Z,987.95
2019-05-02T00:52:03.208Z,987.91
2019-05-02T00:53:07.129Z,987.94
2019-05-02T00:54:05.022Z,987.92
2019-05-02T00:55:03.015Z,987.95
2019-05-02T00:56:05.164Z,987.92
2019-05-02T00:57:05.010Z,987.89
2019-05-02T00:58:02.989Z,987.89
2019-05-02T00:59:07.647Z,987.88
2019-05-02T01:00:03.985Z,987.86
2019-05-02T01:01:02.967Z,987.82
2019-05-02T01:02:05.833Z,987.82
2019-05-02T01:03:03.959Z,987.79
2019-05-02T01:04:02.952Z,987.86
2019-05-02T01:05:03.444Z,987.83
2019-05-02T01:06:03.934Z,987.78
2019-05-02T01:07:02.936Z,987.85
2019-05-02T01:08:03.093Z,987.91
2019-05-02T01:09:05.804Z,987.79
2019-05-02T01:10:04.901Z,987.85
2019-05-02T01:11:02.892Z,987.86
2019-05-02T01:12:07.761Z,987.85
2019-05-02T01:13:04.891Z,987.82
2019-05-02T01:14:02.872Z,987.82
2019-05-02T01:15:03.214Z,987.79
2019-05-02T01:16:04.872Z,987.80
2019-05-02T01:17:34.914Z,987.81
2019-05-02T01:18:06.063Z,987.89
2019-05-02T01:19:03.864Z,987.82
2019-05-02T01:20:02.937Z,987.82
2019-05-02T01:21:04.153Z,987.81
2019-05-02T01:22:03.856Z,987.78
2019-05-02T01:23:02.890Z,987.70
2019-05-02T01:24:04.812Z,987.76
2019-05-02T01:25:03.464Z,987.78
2019-05-02T01:26:02.834Z,987.72
2019-05-02T01:27:04.589Z,987.82
2019-05-02T01:28:03.818Z,987.71
2019-05-02T01:29:02.797Z,987.76
2019-05-02T01:30:06.011Z,987.81
2019-05-02T01:31:03.831Z,987.78
2019-05-02T01:32:02.866Z,987.79
2019-05-02T01:33:06.610Z,987.74
2019-05-02T01:34:03.818Z,987.76
2019-05-02T01:35:02.809Z,987.73
2019-05-02T01:36:06.455Z,987.73
2019-05-02T01:37:05.498Z,987.69
2019-05-02T01:38:02.864Z,987.75
2019-05-02T01:39:02.890Z,987.70
2019-05-02T01:40:03.796Z,987.74
2019-05-02T01:41:02.750Z,987.67
2019-05-02T01:42:04.131Z,987.65
2019-05-02T01:43:03.731Z,987.70
2019-05-02T01:44:02.740Z,987.63
2019-05-02T01:45:06.654Z,987.69
2019-05-02T01:46:03.677Z,987.67
2019-05-02T01:47:02.681Z,987.70
2019-05-02T01:48:04.989Z,987.66
2019-05-02T01:49:03.783Z,987.61
2019-05-02T01:50:02.709Z,987.64
2019-05-02T01:51:04.262Z,987.73
2019-05-02T01:52:04.676Z,987.64
2019-05-02T01:53:02.679Z,987.69
2019-05-02T01:54:05.097Z,987.65
2019-05-02T01:55:04.650Z,987.63
2019-05-02T01:56:02.678Z,987.72
2019-05-02T01:57:03.898Z,987.64
2019-05-02T01:58:04.671Z,987.70
2019-05-02T01:59:02.675Z,987.70
2019-05-02T02:00:04.166Z,987.69
2019-05-02T02:01:04.646Z,987.64
2019-05-02T02:02:02.651Z,987.68
2019-05-02T02:03:04.148Z,987.59
2019-05-02T02:04:04.640Z,987.60
2019-05-02T02:05:02.580Z,987.64
2019-05-02T02:06:07.423Z,987.63
2019-05-02T02:07:04.582Z,987.59
2019-05-02T02:08:02.671Z,987.53
2019-05-02T02:09:03.398Z,987.56
2019-05-02T02:10:04.578Z,987.57
2019-05-02T02:11:02.550Z,987.60
2019-05-02T02:12:04.919Z,987.59
2019-05-02T02:13:05.273Z,987.56
2019-05-02T02:14:07.392Z,987.52
2019-05-02T02:15:03.643Z,987.58
2019-05-02T02:16:04.325Z,987.56
2019-05-02T02:17:03.511Z,987.49
2019-05-02T02:18:02.510Z,987.50
2019-05-02T02:19:03.980Z,987.49
2019-05-02T02:20:03.483Z,987.58
2019-05-02T02:21:02.481Z,987.53
2019-05-02T02:22:04.284Z,987.52
2019-05-02T02:23:03.521Z,987.52
2019-05-02T02:24:02.535Z,987.52
2019-05-02T02:25:02.922Z,987.51
2019-05-02T02:26:06.783Z,987.51
2019-05-02T02:27:03.493Z,987.53
2019-05-02T02:28:03.445Z,987.43
2019-05-02T02:29:03.179Z,987.47
2019-05-02T02:30:03.483Z,987.45
2019-05-02T02:31:04.791Z,987.45
2019-05-02T02:32:03.476Z,987.44
2019-05-02T02:33:07.587Z,987.47
2019-05-02T02:34:04.463Z,987.42
2019-05-02T02:35:03.702Z,987.42
2019-05-02T02:36:04.441Z,987.40
2019-05-02T02:37:05.689Z,987.37
2019-05-02T02:38:04.412Z,987.44
2019-05-02T02:39:06.873Z,987.32
2019-05-02T02:40:04.381Z,987.39
2019-05-02T02:41:06.502Z,987.41
2019-05-02T02:42:04.438Z,987.36
2019-05-02T02:43:12.776Z,987.41
2019-05-02T02:44:04.411Z,987.39
2019-05-02T02:45:02.954Z,987.44
2019-05-02T02:46:02.433Z,987.34
2019-05-02T02:47:02.469Z,987.38
2019-05-02T02:48:02.683Z,987.42
2019-05-02T02:49:03.434Z,987.44
2019-05-02T02:50:05.068Z,987.37
2019-05-02T02:51:02.404Z,987.44
2019-05-02T02:52:04.956Z,987.38
2019-05-02T02:53:04.452Z,987.33
2019-05-02T02:54:03.945Z,987.30
2019-05-02T02:55:03.422Z,987.27
2019-05-02T02:56:03.958Z,987.29
2019-05-02T02:57:03.983Z,987.28
2019-05-02T02:58:04.915Z,987.31
2019-05-02T02:59:03.354Z,987.25
2019-05-02T03:00:07.899Z,987.26
2019-05-02T03:01:04.441Z,987.24
2019-05-02T03:02:10.195Z,987.25
2019-05-02T03:03:04.348Z,987.25
2019-05-02T03:04:09.695Z,987.20
2019-05-02T03:05:03.331Z,987.18
2019-05-02T03:06:05.611Z,987.14
2019-05-02T03:07:04.319Z,987.14
2019-05-02T03:08:05.332Z,987.20
2019-05-02T03:09:03.303Z,987.22
2019-05-02T03:10:06.252Z,987.17
2019-05-02T03:11:04.278Z,987.20
2019-05-02T03:12:04.468Z,987.18
2019-05-02T03:13:02.265Z,987.28
2019-05-02T03:14:07.446Z,987.20
2019-05-02T03:15:04.258Z,987.21
2019-05-02T03:16:07.055Z,987.17
2019-05-02T03:19:06.729Z,987.12
2019-05-02T03:19:54.469Z,987.10
2019-05-02T03:20:53.291Z,987.04
2019-05-02T03:21:54.359Z,987.09
2019-05-02T03:22:54.247Z,987.10
2019-05-02T03:24:02.188Z,987.16
2019-05-02T03:24:55.685Z,987.11
2019-05-02T03:25:53.171Z,987.08
2019-05-02T03:26:55.177Z,987.12
2019-05-02T03:27:53.281Z,987.13
2019-05-02T03:28:58.215Z,987.02
2019-05-02T03:29:54.190Z,987.10
2019-05-02T03:30:52.234Z,987.16
2019-05-02T03:32:11.424Z,987.13
2019-05-02T03:33:06.035Z,987.13
2019-05-02T03:33:59.774Z,987.10
2019-05-02T03:34:54.807Z,987.06
2019-05-02T03:35:53.225Z,987.12
2019-05-02T03:36:52.187Z,987.05
2019-05-02T03:37:53.141Z,987.04
2019-05-02T03:38:53.170Z,987.09
2019-05-02T03:39:57.465Z,987.07
2019-05-02T03:40:53.170Z,986.98
2019-05-02T03:41:55.485Z,987.01
2019-05-02T03:42:54.110Z,986.97
2019-05-02T03:44:09.092Z,987.08
2019-05-02T03:44:56.164Z,987.01
2019-05-02T03:45:54.112Z,987.13
2019-05-02T03:46:54.269Z,987.11
2019-05-02T03:47:54.115Z,987.08
2019-05-02T03:48:59.010Z,987.06
2019-05-02T03:49:53.068Z,987.12
2019-05-02T03:50:53.054Z,987.07
2019-05-02T03:51:56.164Z,987.04
2019-05-02T03:52:54.025Z,987.06
2019-05-02T03:53:52.085Z,986.98
2019-05-02T03:54:52.759Z,986.96
2019-05-02T03:55:53.043Z,986.90
2019-05-02T03:56:53.481Z,987.01
2019-05-02T03:57:53.043Z,986.90
2019-05-02T03:58:56.477Z,986.96
2019-05-02T03:59:54.029Z,987.01
2019-05-02T04:01:00.405Z,987.03
2019-05-02T04:01:54.079Z,987.04
2019-05-02T04:02:59.507Z,987.01
2019-05-02T04:03:53.967Z,987.00
2019-05-02T04:04:54.297Z,987.08
2019-05-02T04:05:53.982Z,987.05
2019-05-02T04:06:55.045Z,987.03
2019-05-02T04:07:54.089Z,987.10
2019-05-02T04:08:58.837Z,987.10
2019-05-02T04:09:54.051Z,987.04
2019-05-02T04:10:52.766Z,987.08
2019-05-02T04:11:53.989Z,987.04
2019-05-02T04:12:53.036Z,987.06
2019-05-02T04:13:53.936Z,987.03
2019-05-02T04:14:55.565Z,987.05
2019-05-02T04:15:52.951Z,987.01
2019-05-02T04:16:55.105Z,987.05
2019-05-02T04:17:53.986Z,987.18
2019-05-02T04:18:55.743Z,987.13
2019-05-02T04:19:53.913Z,987.05
2019-05-02T04:20:52.127Z,987.06
2019-05-02T04:21:54.975Z,987.10
2019-05-02T04:22:52.888Z,987.14
2019-05-02T04:23:51.868Z,987.17
2019-05-02T04:24:56.944Z,987.17
2019-05-02T04:25:53.873Z,987.19
2019-05-02T04:26:56.022Z,987.19
2019-05-02T04:27:52.840Z,987.16
2019-05-02T04:28:52.268Z,987.22
2019-05-02T04:29:51.851Z,987.19
2019-05-02T04:30:53.921Z,987.12
2019-05-02T04:31:52.684Z,987.09
2019-05-02T04:32:55.864Z,987.17
2019-05-02T04:33:52.787Z,987.21
2019-05-02T04:34:55.257Z,987.19
2019-05-02T04:35:53.824Z,987.18
2019-05-02T04:37:00.261Z,987.15
2019-05-02T04:37:53.783Z,987.18
2019-05-02T04:38:52.573Z,987.13
2019-05-02T04:39:53.713Z,987.02
2019-05-02T04:40:53.756Z,987.10
2019-05-02T04:41:52.764Z,987.11
2019-05-02T04:43:02.012Z,987.15
2019-05-02T04:43:57.717Z,987.17
2019-05-02T04:45:14.189Z,987.12
2019-05-02T04:45:59.171Z,987.20
2019-05-02T04:46:59.733Z,987.17
2019-05-02T04:47:58.558Z,987.17
2019-05-02T04:48:53.725Z,987.12
2019-05-02T04:49:52.723Z,987.11
2019-05-02T04:50:58.326Z,987.12
2019-05-02T04:52:04.526Z,987.16
2019-05-02T04:52:54.203Z,987.10
2019-05-02T04:53:52.704Z,987.17
2019-05-02T04:54:51.710Z,987.10
2019-05-02T04:56:01.749Z,987.11
2019-05-02T04:56:55.458Z,987.16
2019-05-02T04:57:52.691Z,987.05
2019-05-02T04:58:51.653Z,987.11
2019-05-02T05:00:02.427Z,987.22
2019-05-02T05:00:58.030Z,987.19
2019-05-02T05:01:57.513Z,987.08
2019-05-02T05:02:53.597Z,987.08
2019-05-02T05:03:58.147Z,987.14
2019-05-02T05:04:53.562Z,987.07
2019-05-02T05:05:51.581Z,987.02
2019-05-02T05:06:55.886Z,987.01
2019-05-02T05:07:53.559Z,987.08
2019-05-02T05:08:51.566Z,986.99
2019-05-02T05:09:58.280Z,987.07
2019-05-02T05:10:53.569Z,987.05
2019-05-02T05:11:53.906Z,987.05
2019-05-02T05:12:53.550Z,986.95
2019-05-02T05:13:52.389Z,987.06
2019-05-02T05:14:52.539Z,987.07
2019-05-02T05:15:52.084Z,987.12
2019-05-02T05:16:55.685Z,987.05
2019-05-02T05:17:53.539Z,987.01
2019-05-02T05:18:53.210Z,987.01
2019-05-02T05:19:53.353Z,987.13
2019-05-02T05:20:53.017Z,987.09
2019-05-02T05:21:56.735Z,986.99
2019-05-02T05:22:52.499Z,987.04
2019-05-02T05:23:51.659Z,987.06
2019-05-02T05:24:52.545Z,987.01
2019-05-02T05:25:55.669Z,987.02
2019-05-02T05:26:52.452Z,987.05
2019-05-02T05:27:52.526Z,987.07
2019-05-02T05:28:53.464Z,987.07
2019-05-02T05:29:53.728Z,987.03
2019-05-02T05:30:53.433Z,986.99
2019-05-02T05:31:55.182Z,987.05
2019-05-02T05:32:53.458Z,987.05
2019-05-02T05:33:51.415Z,987.05
2019-05-02T05:34:51.440Z,987.07
2019-05-02T05:35:52.730Z,987.09
2019-05-02T05:36:52.423Z,987.05
2019-05-02T05:37:53.087Z,987.02
2019-05-02T05:38:52.429Z,987.04
2019-05-02T05:39:52.676Z,987.05
2019-05-02T05:40:52.338Z,987.10
2019-05-02T05:41:52.465Z,987.11
2019-05-02T05:42:52.340Z,987.05
2019-05-02T05:43:53.608Z,987.07
2019-05-02T05:44:52.295Z,987.08
2019-05-02T05:45:56.377Z,987.03
2019-05-02T05:46:53.367Z,987.01
2019-05-02T05:47:52.409Z,987.12
2019-05-02T05:48:53.878Z,987.06
2019-05-02T05:49:52.270Z,987.05
2019-05-02T05:50:53.277Z,987.00
2019-05-02T05:51:54.391Z,987.07
2019-05-02T05:52:53.282Z,986.98
2019-05-02T05:53:52.333Z,987.07
2019-05-02T05:54:53.222Z,987.00
2019-05-02T05:55:53.643Z,986.99
2019-05-02T05:56:53.274Z,986.93
2019-05-02T05:57:59.502Z,986.92
2019-05-02T05:58:53.278Z,986.91
2019-05-02T05:59:52.238Z,986.90
2019-05-02T06:00:55.358Z,986.91
2019-05-02T06:01:53.214Z,986.96
2019-05-02T06:02:56.248Z,986.92
2019-05-02T06:03:53.267Z,986.97
2019-05-02T06:04:55.310Z,986.91
2019-05-02T06:05:52.231Z,986.89
2019-05-02T06:06:54.034Z,986.96
2019-05-02T06:07:53.203Z,986.91
2019-05-02T06:08:54.066Z,986.92
2019-05-02T06:09:52.172Z,986.87
2019-05-02T06:10:51.183Z,986.89
2019-05-02T06:11:55.475Z,986.85
2019-05-02T06:12:51.291Z,986.81
2019-05-02T06:13:51.156Z,986.86
2019-05-02T06:14:51.187Z,986.86
2019-05-02T06:16:01.571Z,986.86
2019-05-02T06:16:53.690Z,986.88
2019-05-02T06:17:51.138Z,986.83
2019-05-02T06:18:51.111Z,986.79
2019-05-02T06:19:53.566Z,986.82
2019-05-02T06:20:52.090Z,986.79
2019-05-02T06:21:51.094Z,986.77
2019-05-02T06:22:55.053Z,986.80
2019-05-02T06:23:52.114Z,986.77
2019-05-02T06:24:52.106Z,986.81
2019-05-02T06:25:51.125Z,986.76
2019-05-02T06:26:51.803Z,986.72
2019-05-02T06:27:52.016Z,986.74
2019-05-02T06:28:51.011Z,986.76
2019-05-02T06:29:55.633Z,986.78
2019-05-02T06:30:53.004Z,986.72
2019-05-02T06:31:51.845Z,986.74
2019-05-02T06:32:54.992Z,986.69
2019-05-02T06:33:53.025Z,986.68
2019-05-02T06:34:50.993Z,986.72
2019-05-02T06:35:51.838Z,986.66
2019-05-02T06:36:53.122Z,986.62
2019-05-02T06:37:52.002Z,986.61
2019-05-02T06:38:52.342Z,986.60
2019-05-02T06:39:53.689Z,986.55
2019-05-02T06:40:51.016Z,986.47
2019-05-02T06:41:52.119Z,986.45
2019-05-02T06:42:52.983Z,986.42
2019-05-02T06:43:51.096Z,986.39
2019-05-02T06:44:54.962Z,986.28
2019-05-02T06:45:52.908Z,986.27
2019-05-02T06:46:51.855Z,986.29
2019-05-02T06:47:50.941Z,986.22
2019-05-02T06:48:52.250Z,986.24
2019-05-02T06:49:56.155Z,986.20
2019-05-02T06:50:52.696Z,986.18
2019-05-02T06:51:56.329Z,986.17
2019-05-02T06:52:52.964Z,986.07
2019-05-02T06:53:50.922Z,986.06
2019-05-02T06:54:54.070Z,986.10
2019-05-02T06:55:54.194Z,986.03
2019-05-02T06:56:51.108Z,986.03
2019-05-02T06:57:51.792Z,986.12
2019-05-02T06:58:51.961Z,986.03
2019-05-02T06:59:54.647Z,986.02
2019-05-02T07:00:57.979Z,986.01
2019-05-02T07:01:57.560Z,985.98
2019-05-02T07:02:52.891Z,985.96
2019-05-02T07:03:51.694Z,985.94
2019-05-02T07:04:54.711Z,985.97
2019-05-02T07:05:53.194Z,985.99
2019-05-02T07:06:58.902Z,986.03
2019-05-02T07:07:53.005Z,985.99
2019-05-02T07:08:51.004Z,985.96
2019-05-02T07:09:50.943Z,985.98
2019-05-02T07:10:50.819Z,985.91
2019-05-02T07:11:57.288Z,985.86
2019-05-02T07:13:09.223Z,985.89
2019-05-02T07:13:51.799Z,985.83
2019-05-02T07:14:50.798Z,985.83
2019-05-02T07:15:50.795Z,985.80
2019-05-02T07:16:54.440Z,985.74
2019-05-02T07:18:17.701Z,985.67
2019-05-02T07:18:50.678Z,985.65
2019-05-02T07:19:50.684Z,985.56
2019-05-02T07:20:50.670Z,985.60
2019-05-02T07:21:53.063Z,985.68
2019-05-02T07:22:52.663Z,985.56
2019-05-02T07:23:53.525Z,985.55
2019-05-02T07:24:51.664Z,985.56
2019-05-02T07:25:50.641Z,985.54
2019-05-02T07:26:52.086Z,985.40
2019-05-02T07:27:52.639Z,985.44
2019-05-02T07:28:50.634Z,985.42
2019-05-02T07:29:52.227Z,985.40
2019-05-02T07:30:54.644Z,985.44
2019-05-02T07:31:53.449Z,985.41
2019-05-02T07:32:50.619Z,985.38
2019-05-02T07:33:50.623Z,985.40
2019-05-02T07:34:50.614Z,985.32
2019-05-02T07:35:50.623Z,985.31
2019-05-02T07:36:50.609Z,985.26
2019-05-02T07:37:50.610Z,985.28
2019-05-02T07:38:50.592Z,985.23
2019-05-02T07:39:50.607Z,985.22
2019-05-02T07:40:52.951Z,985.21
2019-05-02T07:41:51.590Z,985.16
2019-05-02T07:42:50.588Z,985.15
2019-05-02T07:43:52.067Z,985.13
2019-05-02T07:44:52.576Z,985.11
2019-05-02T07:45:50.575Z,985.02
2019-05-02T07:46:52.074Z,985.00
2019-05-02T07:47:51.548Z,984.97
2019-05-02T07:48:54.653Z,984.96
2019-05-02T07:49:51.535Z,984.95
2019-05-02T07:50:50.923Z,984.89
2019-05-02T07:51:52.394Z,984.96
2019-05-02T07:52:52.535Z,984.92
2019-05-02T07:53:50.527Z,984.88
2019-05-02T07:54:50.526Z,984.85
2019-05-02T07:55:50.519Z,984.83
2019-05-02T07:56:53.478Z,984.79
2019-05-02T07:57:51.494Z,984.77
2019-05-02T07:58:50.483Z,984.83
2019-05-02T07:59:55.061Z,984.79
2019-05-02T08:00:51.510Z,984.76
2019-05-02T08:01:50.955Z,984.78
2019-05-02T08:02:50.490Z,984.75
2019-05-02T08:03:50.483Z,984.76
2019-05-02T08:04:50.479Z,984.80
2019-05-02T08:05:54.559Z,984.80
2019-05-02T08:06:51.488Z,984.80
2019-05-02T08:07:53.407Z,984.73
2019-05-02T08:08:51.461Z,984.85
2019-05-02T08:09:50.474Z,984.75
2019-05-02T08:10:53.851Z,984.77
2019-05-02T08:11:52.483Z,984.74
2019-05-02T08:12:50.429Z,984.71
2019-05-02T08:13:55.512Z,984.78
2019-05-02T08:14:51.419Z,984.75
2019-05-02T08:15:52.278Z,984.71
2019-05-02T08:17:04.731Z,984.70
2019-05-02T08:17:53.848Z,984.71
2019-05-02T08:18:51.388Z,984.69
2019-05-02T08:19:50.381Z,984.67
2019-05-02T08:20:51.048Z,984.67
2019-05-02T08:21:52.379Z,984.64
2019-05-02T08:22:50.645Z,984.61
2019-05-02T08:23:51.389Z,984.65
2019-05-02T08:24:51.254Z,984.61
2019-05-02T08:25:50.378Z,984.54
2019-05-02T08:26:53.356Z,984.68
2019-05-02T08:27:52.359Z,984.58
2019-05-02T08:28:51.881Z,984.65
2019-05-02T08:29:51.341Z,984.60
2019-05-02T08:30:50.336Z,984.65
2019-05-02T08:31:50.347Z,984.62
2019-05-02T08:32:50.317Z,984.63
2019-05-02T08:33:50.311Z,984.68
2019-05-02T08:34:52.056Z,984.70
2019-05-02T08:35:51.307Z,984.60
2019-05-02T08:36:50.304Z,984.58
2019-05-02T08:37:50.283Z,984.56
2019-05-02T08:38:53.679Z,984.56
2019-05-02T08:39:51.259Z,984.53
2019-05-02T08:40:51.259Z,984.59
2019-05-02T08:41:51.204Z,984.57
2019-05-02T08:42:52.274Z,984.53
2019-05-02T08:43:50.256Z,984.52
2019-05-02T08:44:51.580Z,984.53
2019-05-02T08:45:52.236Z,984.50
2019-05-02T08:46:51.342Z,984.53
2019-05-02T08:47:51.235Z,984.52
2019-05-02T08:48:50.831Z,984.43
2019-05-02T08:49:54.900Z,984.44
2019-05-02T08:50:52.202Z,984.45
2019-05-02T08:51:50.198Z,984.43
2019-05-02T08:52:50.204Z,984.46
2019-05-02T08:53:52.130Z,984.47
2019-05-02T08:54:52.181Z,984.41
2019-05-02T08:55:50.197Z,984.49
2019-05-02T08:56:53.473Z,984.48
2019-05-02T08:57:52.186Z,984.51
2019-05-02T08:58:51.159Z,984.44
2019-05-02T08:59:50.155Z,984.42
2019-05-02T09:00:50.147Z,984.47
2019-05-02T09:01:51.432Z,984.45
2019-05-02T09:02:50.155Z,984.40
2019-05-02T09:03:55.520Z,984.45
2019-05-02T09:04:58.670Z,984.44
2019-05-02T09:06:04.970Z,984.46
2019-05-02T09:06:53.202Z,984.48
2019-05-02T09:07:52.125Z,984.41
2019-05-02T09:08:51.383Z,984.45
2019-05-02T09:09:51.086Z,984.44
2019-05-02T09:10:50.075Z,984.41
2019-05-02T09:12:04.934Z,984.43
2019-05-02T09:12:52.198Z,984.41
2019-05-02T09:13:52.636Z,984.44
2019-05-02T09:14:51.966Z,984.45
2019-05-02T09:15:53.582Z,984.47
2019-05-02T09:16:52.382Z,984.41
2019-05-02T09:17:56.291Z,984.49
2019-05-02T09:18:54.186Z,984.45
2019-05-02T09:20:00.364Z,984.42
2019-05-02T09:20:56.364Z,984.40
2019-05-02T09:21:52.552Z,984.33
2019-05-02T09:22:52.134Z,984.41
2019-05-02T09:23:51.989Z,984.40
2019-05-02T09:24:52.035Z,984.40
2019-05-02T09:25:51.953Z,984.44
2019-05-02T09:26:51.918Z,984.46
2019-05-02T09:27:52.646Z,984.42
2019-05-02T09:28:51.705Z,984.43
2019-05-02T09:29:51.841Z,984.43
2019-05-02T09:30:52.300Z,984.33
2019-05-02T09:31:49.951Z,984.39
2019-05-02T09:32:52.214Z,984.33
2019-05-02T09:33:51.948Z,984.36
2019-05-02T09:34:51.830Z,984.39
2019-05-02T09:35:51.583Z,984.37
2019-05-02T09:36:49.945Z,984.33
2019-05-02T09:37:49.932Z,984.35
2019-05-02T09:38:55.985Z,984.36
2019-05-02T09:39:52.498Z,984.33
2019-05-02T09:40:54.569Z,984.29
2019-05-02T09:41:52.742Z,984.29
2019-05-02T09:42:53.456Z,984.30
2019-05-02T09:43:52.374Z,984.26
2019-05-02T09:44:55.706Z,984.25
2019-05-02T09:45:52.155Z,984.21
2019-05-02T09:46:53.065Z,984.25
2019-05-02T09:47:57.313Z,984.17
2019-05-02T09:48:52.048Z,984.16
2019-05-02T09:49:53.057Z,984.20
2019-05-02T09:50:49.860Z,984.19
2019-05-02T09:51:50.291Z,984.18
2019-05-02T09:52:52.386Z,984.15
2019-05-02T09:53:52.211Z,984.17
2019-05-02T09:54:51.793Z,984.24
2019-05-02T09:55:55.036Z,984.16
2019-05-02T09:56:52.463Z,984.28
2019-05-02T09:57:51.766Z,984.19
2019-05-02T09:58:55.058Z,984.20
2019-05-02T09:59:55.721Z,984.25
2019-05-02T10:00:52.528Z,984.20
2019-05-02T10:01:49.871Z,984.25
2019-05-02T10:02:49.797Z,984.18
2019-05-02T10:03:51.705Z,984.26
2019-05-02T10:04:49.798Z,984.23
2019-05-02T10:05:49.778Z,984.20
2019-05-02T10:06:52.280Z,984.28
2019-05-02T10:07:49.767Z,984.29
2019-05-02T10:08:51.826Z,984.31
2019-05-02T10:09:51.784Z,984.27
2019-05-02T10:10:49.761Z,984.31
2019-05-02T10:11:49.769Z,984.36
2019-05-02T10:12:49.736Z,984.29
2019-05-02T10:13:51.735Z,984.29
2019-05-02T10:14:49.717Z,984.31
2019-05-02T10:15:49.723Z,984.35
2019-05-02T10:16:49.740Z,984.33
2019-05-02T10:17:51.782Z,984.36
2019-05-02T10:18:49.708Z,984.39
2019-05-02T10:19:55.029Z,984.35
2019-05-02T10:20:52.453Z,984.41
2019-05-02T10:21:54.323Z,984.34
2019-05-02T10:22:53.022Z,984.32
2019-05-02T10:23:51.725Z,984.28
2019-05-02T10:24:52.053Z,984.34
2019-05-02T10:25:49.676Z,984.35
2019-05-02T10:26:49.652Z,984.31
2019-05-02T10:27:49.653Z,984.22
2019-05-02T10:28:52.784Z,984.22
2019-05-02T10:29:49.640Z,984.23
2019-05-02T10:30:52.594Z,984.26
2019-05-02T10:31:52.627Z,984.23
2019-05-02T10:32:52.905Z,984.19
2019-05-02T10:33:52.936Z,984.27
2019-05-02T10:34:54.319Z,984.23
2019-05-02T10:35:52.436Z,984.24
2019-05-02T10:36:54.211Z,984.28
2019-05-02T10:37:52.100Z,984.23
2019-05-02T10:38:54.800Z,984.22
2019-05-02T10:39:52.208Z,984.20
2019-05-02T10:40:54.563Z,984.13
2019-05-02T10:41:52.649Z,984.14
2019-05-02T10:42:49.568Z,984.14
2019-05-02T10:43:51.965Z,984.14
2019-05-02T10:44:52.147Z,984.13
2019-05-02T10:45:52.857Z,984.12
2019-05-02T10:46:52.291Z,984.09
2019-05-02T10:47:49.530Z,984.05
2019-05-02T10:48:49.525Z,984.07
2019-05-02T10:49:49.512Z,984.05
2019-05-02T10:50:49.536Z,984.10
2019-05-02T10:51:51.844Z,984.13
2019-05-02T10:52:49.493Z,984.09
2019-05-02T10:53:52.627Z,984.12
2019-05-02T10:54:52.839Z,984.14
2019-05-02T10:55:49.486Z,984.17
2019-05-02T10:56:49.467Z,984.14
2019-05-02T10:57:49.467Z,984.13
2019-05-02T10:58:49.451Z,984.17
2019-05-02T10:59:49.458Z,984.18
2019-05-02T11:00:49.455Z,984.20
2019-05-02T11:01:49.460Z,984.14
2019-05-02T11:02:49.443Z,984.15
2019-05-02T11:03:51.558Z,984.16
2019-05-02T11:04:49.441Z,984.13
2019-05-02T11:05:49.411Z,984.14
2019-05-02T11:06:49.418Z,984.13
2019-05-02T11:07:49.403Z,984.13
2019-05-02T11:08:49.393Z,984.05
2019-05-02T11:09:49.386Z,984.13
2019-05-02T11:10:49.408Z,984.18
2019-05-02T11:11:49.407Z,984.06
2019-05-02T11:12:49.401Z,984.13
2019-05-02T11:13:55.388Z,984.14
2019-05-02T11:14:51.693Z,984.20
2019-05-02T11:15:49.362Z,984.14
2019-05-02T11:16:49.364Z,984.10
2019-05-02T11:17:49.350Z,984.13
2019-05-02T11:18:49.355Z,984.13
2019-05-02T11:19:49.333Z,984.14
2019-05-02T11:20:49.331Z,984.11
2019-05-02T11:21:56.422Z,984.12
2019-05-02T11:22:54.393Z,984.15
2019-05-02T11:23:52.440Z,984.13
2019-05-02T11:24:49.289Z,984.13
2019-05-02T11:25:49.290Z,984.15
2019-05-02T11:26:49.291Z,984.14
2019-05-02T11:27:49.277Z,984.17
2019-05-02T11:28:49.262Z,984.13
2019-05-02T11:29:49.266Z,984.14
2019-05-02T11:30:49.271Z,984.14
2019-05-02T11:31:49.295Z,984.14
2019-05-02T11:32:49.259Z,984.14
2019-05-02T11:33:49.254Z,984.21
2019-05-02T11:34:49.259Z,984.22
2019-05-02T11:35:51.116Z,984.19
2019-05-02T11:36:49.280Z,984.18
2019-05-02T11:37:49.235Z,984.15
2019-05-02T11:38:54.819Z,984.14
2019-05-02T11:39:57.776Z,984.13
2019-05-02T11:40:52.061Z,984.12
2019-05-02T11:41:49.241Z,984.05
2019-05-02T11:42:49.230Z,984.07
2019-05-02T11:43:49.233Z,984.11
2019-05-02T11:44:49.213Z,984.05
2019-05-02T11:45:49.228Z,984.10
2019-05-02T11:46:49.218Z,984.05
2019-05-02T11:47:49.225Z,984.02
2019-05-02T11:48:56.433Z,983.94
2019-05-02T11:49:53.990Z,984.03
2019-05-02T11:50:52.150Z,983.96
2019-05-02T11:51:52.595Z,984.00
2019-05-02T11:52:52.331Z,983.98
2019-05-02T11:53:49.166Z,983.95
2019-05-02T11:54:49.170Z,983.95
2019-05-02T11:55:49.143Z,983.99
2019-05-02T11:56:50.501Z,983.92
2019-05-02T11:57:49.152Z,983.93
2019-05-02T11:58:50.297Z,983.86
2019-05-02T11:59:51.953Z,983.89
2019-05-02T12:00:49.706Z,983.89
2019-05-02T12:01:57.624Z,983.86
2019-05-02T12:02:56.254Z,983.81
2019-05-02T12:03:52.224Z,983.80
2019-05-02T12:04:54.305Z,983.84
2019-05-02T12:05:52.438Z,983.80
2019-05-02T12:06:49.914Z,983.80
2019-05-02T12:07:52.569Z,983.76
2019-05-02T12:08:49.532Z,983.74
2019-05-02T12:09:55.521Z,983.69
2019-05-02T12:10:51.950Z,983.75
2019-05-02T12:11:55.019Z,983.90
2019-05-02T12:12:52.677Z,983.79
2019-05-02T12:13:52.682Z,983.81
2019-05-02T12:14:52.735Z,983.86
2019-05-02T12:15:49.044Z,983.83
2019-05-02T12:16:49.052Z,983.82
2019-05-02T12:17:49.053Z,983.85
2019-05-02T12:18:49.040Z,983.86
2019-05-02T12:19:49.029Z,983.86
2019-05-02T12:20:49.028Z,983.77
2019-05-02T12:21:49.034Z,983.75
2019-05-02T12:22:49.035Z,983.81
2019-05-02T12:23:49.012Z,983.82
2019-05-02T12:24:48.997Z,983.83
2019-05-02T12:25:48.998Z,983.77
2019-05-02T12:26:48.981Z,983.68
2019-05-02T12:27:48.986Z,983.79
2019-05-02T12:28:48.967Z,983.82
2019-05-02T12:29:50.169Z,983.76